Carterhouse, United Kingdom
Current Conditions -  °F | °C
As of 11:50 PM on Saturday 20 Dec 2014 (Local Time) from EGOM Reporting Station
Haze Haze  
Wind Chill: 32°   Ceiling: 200
Heat Index: 41°   Visibility: 6mi
Dew Point: 41°   Wind: 17mph
Humidity: 100%   Direction: 250°WSW
Pressure: 30.18"   Gusts: NA
Location:  55.37°N, 2.52°W
Report Text: EGOM 202350Z AUTO 25015KT 9000 BR BKN002/// 05/05 Q1022
Loading
Personal Weather Stations






























Interactive Weather Map New forecast layout! Learn more

10-Day Weather Forecast

Advertisements
Track Severe Weather on mobile